createdAt,value
2023-01-29T00:04:34.652Z,99282.88
2023-01-29T00:09:38.455Z,99266.28
2023-01-29T00:14:43.247Z,99269.63
2023-01-29T00:19:46.515Z,99270.09
2023-01-29T00:24:50.003Z,99244.16
2023-01-29T00:30:08.740Z,99259.19
2023-01-29T00:35:12.878Z,99252.72
2023-01-29T00:40:16.883Z,99243.00
2023-01-29T00:45:21.954Z,99200.78
2023-01-29T00:50:25.333Z,99236.19
2023-01-29T00:55:28.845Z,99248.97
2023-01-29T01:00:33.838Z,99235.06
2023-01-29T01:05:39.366Z,99233.75
2023-01-29T01:10:42.969Z,99239.06
2023-01-29T01:15:47.868Z,99242.38
2023-01-29T01:20:52.851Z,99245.34
2023-01-29T01:25:56.336Z,99220.84
2023-01-29T01:31:10.524Z,99231.22
2023-01-29T01:36:14.056Z,99206.34
2023-01-29T01:41:19.899Z,99223.34
2023-01-29T01:46:25.855Z,99200.03
2023-01-29T01:51:32.291Z,99182.94
2023-01-29T01:56:42.040Z,99197.41
2023-01-29T02:01:51.698Z,99186.69
2023-01-29T02:07:13.420Z,99178.44
2023-01-29T02:12:18.716Z,99175.75
2023-01-29T02:17:23.953Z,99165.50
2023-01-29T02:22:55.310Z,99148.78
2023-01-29T02:28:34.275Z,99165.28
2023-01-29T02:33:56.880Z,99142.19
2023-01-29T02:39:11.059Z,99141.84
2023-01-29T02:44:23.479Z,99126.97
2023-01-29T02:49:34.956Z,99110.06
2023-01-29T02:54:46.440Z,99111.06
2023-01-29T02:59:57.095Z,99103.22
2023-01-29T03:05:04.573Z,99093.66
2023-01-29T03:10:14.340Z,99099.88
2023-01-29T03:15:25.437Z,99080.44
2023-01-29T03:20:41.676Z,99077.28
2023-01-29T03:26:03.931Z,99067.97
2023-01-29T03:31:29.383Z,99048.44
2023-01-29T03:36:40.134Z,99040.44
2023-01-29T03:41:50.457Z,99030.50
2023-01-29T03:46:59.209Z,99040.31
2023-01-29T03:52:08.579Z,99041.47
2023-01-29T03:57:16.968Z,99010.72
2023-01-29T04:02:28.239Z,99017.09
2023-01-29T04:07:33.868Z,99022.25
2023-01-29T04:12:42.865Z,99025.63
2023-01-29T04:17:53.087Z,99010.59
2023-01-29T04:22:56.592Z,99011.00
2023-01-29T04:28:09.024Z,99009.50
2023-01-29T04:33:23.458Z,99012.00
2023-01-29T04:38:40.974Z,99003.22
2023-01-29T04:43:57.301Z,99001.19
2023-01-29T04:49:14.724Z,99001.41
2023-01-29T04:54:27.407Z,98984.75
2023-01-29T04:59:35.420Z,99001.22
2023-01-29T05:04:42.724Z,98993.28
2023-01-29T05:09:48.022Z,98981.09
2023-01-29T05:14:53.366Z,98992.47
2023-01-29T05:19:58.927Z,98982.50
2023-01-29T05:25:02.346Z,98981.97
2023-01-29T05:30:08.486Z,98972.09
2023-01-29T05:35:14.228Z,98964.56
2023-01-29T05:40:18.219Z,98956.44
2023-01-29T05:45:22.354Z,98970.03
2023-01-29T05:50:28.834Z,98960.03
2023-01-29T05:55:32.292Z,98954.59
2023-01-29T06:00:35.947Z,98947.00
2023-01-29T06:05:41.274Z,98931.25
2023-01-29T06:10:44.845Z,98924.19
2023-01-29T06:15:48.258Z,98932.28
2023-01-29T06:20:53.392Z,98935.00
2023-01-29T06:26:01.483Z,98926.41
2023-01-29T06:36:31.913Z,98911.69
2023-01-29T06:41:36.051Z,98909.09
2023-01-29T06:46:39.649Z,98906.56
2023-01-29T06:51:44.913Z,98897.16
2023-01-29T06:56:48.491Z,98891.88
2023-01-29T07:01:52.201Z,98898.28
2023-01-29T07:06:57.327Z,98883.56
2023-01-29T07:12:00.921Z,98890.84
2023-01-29T07:17:04.336Z,98895.44
2023-01-29T07:22:09.394Z,98888.41
2023-01-29T07:27:12.998Z,98888.31
2023-01-29T07:32:16.637Z,98893.22
2023-01-29T07:37:21.661Z,98890.25
2023-01-29T07:42:25.109Z,98874.69
2023-01-29T07:47:28.781Z,98876.31
2023-01-29T07:52:34.949Z,98868.41
2023-01-29T07:57:38.607Z,98863.03
2023-01-29T08:02:42.439Z,98868.78
2023-01-29T08:08:00.869Z,98870.16
2023-01-29T08:13:09.484Z,98878.19
2023-01-29T08:18:13.542Z,98878.31
2023-01-29T08:23:18.452Z,98879.81
2023-01-29T08:28:22.113Z,98870.16
2023-01-29T08:33:38.719Z,98872.84
2023-01-29T08:38:44.420Z,98860.34
2023-01-29T08:43:47.919Z,98858.38
2023-01-29T08:48:51.511Z,98873.75
2023-01-29T08:53:56.431Z,98866.63
2023-01-29T08:58:59.704Z,98862.09
2023-01-29T09:04:03.152Z,98857.97
2023-01-29T09:09:08.357Z,98847.78
2023-01-29T09:14:12.638Z,98837.25
2023-01-29T09:19:16.241Z,98831.41
2023-01-29T09:24:21.237Z,98834.13
2023-01-29T09:29:24.618Z,98832.47
2023-01-29T09:34:28.077Z,98825.31
2023-01-29T09:39:33.107Z,98828.97
2023-01-29T09:44:51.097Z,98822.00
2023-01-29T09:49:58.418Z,98803.16
2023-01-29T09:55:08.540Z,98783.28
2023-01-29T10:00:17.308Z,98779.53
2023-01-29T10:05:37.112Z,98752.66
2023-01-29T10:10:51.264Z,98732.72
2023-01-29T10:16:18.772Z,98724.69
2023-01-29T10:21:39.231Z,98712.16
2023-01-29T10:26:44.331Z,98728.75
2023-01-29T10:31:53.036Z,98723.63
2023-01-29T10:36:57.839Z,98709.28
2023-01-29T10:42:16.738Z,98698.84
2023-01-29T10:47:40.828Z,98683.41
2023-01-29T10:53:07.419Z,98693.91
2023-01-29T10:58:22.484Z,98684.25
2023-01-29T11:03:28.696Z,98675.56
2023-01-29T11:08:39.551Z,98678.09
2023-01-29T11:13:50.147Z,98675.44
2023-01-29T11:18:56.828Z,98664.53
2023-01-29T11:24:09.008Z,98662.41
2023-01-29T11:29:48.507Z,98659.41
2023-01-29T11:34:58.969Z,98648.69
2023-01-29T11:40:02.642Z,98642.97
2023-01-29T11:45:27.076Z,98641.28
2023-01-29T11:50:33.315Z,98637.16
2023-01-29T11:55:50.239Z,98631.47
2023-01-29T12:00:57.093Z,98622.31
2023-01-29T12:06:04.348Z,98633.16
2023-01-29T12:11:13.985Z,98633.38
2023-01-29T12:16:28.126Z,98630.34
2023-01-29T12:21:37.366Z,98633.50
2023-01-29T12:26:48.533Z,98632.31
2023-01-29T12:32:00.686Z,98637.75
2023-01-29T12:37:12.621Z,98628.09
2023-01-29T12:42:20.981Z,98633.22
2023-01-29T12:47:35.106Z,98627.91
2023-01-29T12:52:43.149Z,98625.63
2023-01-29T12:57:52.271Z,98620.44
2023-01-29T13:03:05.492Z,98614.53
2023-01-29T13:08:12.270Z,98608.59
2023-01-29T13:13:31.902Z,98602.25
2023-01-29T13:18:43.024Z,98601.75
2023-01-29T13:23:49.871Z,98597.06
2023-01-29T13:28:54.155Z,98598.94
2023-01-29T13:34:08.898Z,98607.16
2023-01-29T13:39:22.409Z,98592.69
2023-01-29T13:44:29.557Z,98584.91
2023-01-29T13:49:39.232Z,98584.94
2023-01-29T13:54:50.885Z,98578.94
2023-01-29T13:59:56.757Z,98590.72
2023-01-29T14:05:47.885Z,98580.41
2023-01-29T14:11:37.162Z,98577.47
2023-01-29T14:16:40.669Z,98582.34
2023-01-29T14:21:51.824Z,98563.94
2023-01-29T14:26:57.815Z,98582.28
2023-01-29T14:32:10.940Z,98578.47
2023-01-29T14:37:30.431Z,98567.78
2023-01-29T14:42:37.611Z,98575.06
2023-01-29T14:48:01.262Z,98570.38
2023-01-29T14:53:12.327Z,98562.38
2023-01-29T14:58:20.055Z,98547.78
2023-01-29T15:03:33.960Z,98553.50
2023-01-29T15:08:42.668Z,98563.19
2023-01-29T15:13:53.673Z,98563.00
2023-01-29T15:19:08.684Z,98561.34
2023-01-29T15:24:15.036Z,98555.56
2023-01-29T15:29:26.174Z,98550.09
2023-01-29T15:34:29.772Z,98557.00
2023-01-29T15:39:33.499Z,98540.72
2023-01-29T15:44:45.439Z,98556.97
2023-01-29T15:49:49.491Z,98556.94
2023-01-29T15:54:53.302Z,98543.84
2023-01-29T16:00:00.571Z,98539.72
2023-01-29T16:05:05.064Z,98547.28
2023-01-29T16:10:16.228Z,98549.34
2023-01-29T16:15:30.007Z,98553.56
2023-01-29T16:20:38.697Z,98543.56
2023-01-29T16:25:42.184Z,98540.38
2023-01-29T16:30:47.300Z,98557.34
2023-01-29T16:35:53.373Z,98533.53
2023-01-29T16:41:08.908Z,98532.06
2023-01-29T16:46:20.769Z,98537.28
2023-01-29T16:51:27.327Z,98516.75
2023-01-29T16:56:34.255Z,98517.63
2023-01-29T17:01:39.288Z,98512.59
2023-01-29T17:06:45.901Z,98501.97
2023-01-29T17:11:50.742Z,98499.28
2023-01-29T17:16:56.710Z,98503.94
2023-01-29T17:22:04.788Z,98503.09
2023-01-29T17:27:08.430Z,98508.72
2023-01-29T17:32:13.733Z,98501.22
2023-01-29T17:37:18.335Z,98499.25
2023-01-29T17:42:21.941Z,98490.00
2023-01-29T17:47:27.389Z,98482.13
2023-01-29T17:52:32.308Z,98492.69
2023-01-29T17:57:36.115Z,98483.28
2023-01-29T18:02:40.868Z,98490.22
2023-01-29T18:07:47.021Z,98491.47
2023-01-29T18:12:50.354Z,98481.09
2023-01-29T18:17:55.481Z,98486.44
2023-01-29T18:22:58.872Z,98479.56
2023-01-29T18:28:02.625Z,98480.00
2023-01-29T18:33:07.389Z,98471.69
2023-01-29T18:38:11.007Z,98471.00
2023-01-29T18:43:15.831Z,98479.03
2023-01-29T18:48:20.568Z,98474.53
2023-01-29T18:53:23.954Z,98458.53
2023-01-29T18:58:36.553Z,98446.69
2023-01-29T19:03:42.423Z,98455.63
2023-01-29T19:08:46.000Z,98453.31
2023-01-29T19:13:49.959Z,98437.06
2023-01-29T19:18:56.404Z,98443.88
2023-01-29T19:23:59.945Z,98437.75
2023-01-29T19:29:03.805Z,98428.03
2023-01-29T19:34:09.461Z,98422.25
2023-01-29T19:39:15.029Z,98416.81
2023-01-29T19:44:18.694Z,98411.25
2023-01-29T19:49:23.627Z,98417.41
2023-01-29T19:54:28.154Z,98405.44
2023-01-29T19:59:31.705Z,98407.09
2023-01-29T20:04:36.718Z,98394.41
2023-01-29T20:09:40.318Z,98375.41
2023-01-29T20:14:48.937Z,98367.97
2023-01-29T20:19:53.949Z,98376.00
2023-01-29T20:24:57.397Z,98371.72
2023-01-29T20:30:00.983Z,98369.75
2023-01-29T20:35:06.565Z,98373.84
2023-01-29T20:40:11.780Z,98375.00
2023-01-29T20:45:16.667Z,98370.75
2023-01-29T20:50:21.741Z,98367.16
2023-01-29T20:55:25.218Z,98367.50
2023-01-29T21:00:28.981Z,98356.19
2023-01-29T21:05:33.897Z,98360.31
2023-01-29T21:10:37.261Z,98342.47
2023-01-29T21:15:40.659Z,98344.66
2023-01-29T21:20:45.928Z,98343.69
2023-01-29T21:25:49.855Z,98341.41
2023-01-29T21:31:03.221Z,98342.31
2023-01-29T21:36:10.310Z,98334.81
2023-01-29T21:41:13.923Z,98334.84
2023-01-29T21:46:17.442Z,98324.75
2023-01-29T21:51:23.012Z,98323.63
2023-01-29T21:56:26.592Z,98335.53
2023-01-29T22:01:37.498Z,98327.28
2023-01-29T22:06:43.727Z,98297.00
2023-01-29T22:11:47.434Z,98313.53
2023-01-29T22:16:50.744Z,98305.28
2023-01-29T22:21:55.789Z,98282.41
2023-01-29T22:26:59.364Z,98272.03
2023-01-29T22:32:03.010Z,98261.19
2023-01-29T22:37:08.011Z,98265.84
2023-01-29T22:42:11.612Z,98246.75
2023-01-29T22:47:15.374Z,98238.59
2023-01-29T22:52:22.533Z,98243.03
2023-01-29T22:57:26.097Z,98243.75
2023-01-29T23:02:29.505Z,98236.88
2023-01-29T23:07:34.513Z,98230.94
2023-01-29T23:12:37.922Z,98224.88
2023-01-29T23:17:41.247Z,98208.72
2023-01-29T23:22:47.550Z,98212.50
2023-01-29T23:27:50.853Z,98219.22
2023-01-29T23:32:54.273Z,98211.22
2023-01-29T23:37:59.256Z,98201.63
2023-01-29T23:43:02.651Z,98191.31
2023-01-29T23:48:06.883Z,98182.91
2023-01-29T23:53:11.633Z,98172.47
2023-01-29T23:58:15.350Z,98179.16
